Potgietersrus, South Africa
Current Conditions -  °F | °C
As of 5:00 PM on Sunday 21 Dec 2014 (Local Time) from FAPP Reporting Station
Moderate Rain Moderate Rain  
Wind Chill: 82°   Ceiling: Unl
Heat Index: 82°   Visibility: 6mi
Dew Point: 55°   Wind: 6mph
Humidity: 39%   Direction: 40°NE
Pressure: 29.97"   Gusts: NA
Location:  24.16°S, 29°E
Report Text: FAPP 211500Z 04005KT 9999 VC RA FEW050TCU 28/13 Q1015 TEMPO TSRA
Loading
Personal Weather Stations






























Interactive Weather Map New forecast layout! Learn more

10-Day Weather Forecast

Advertisements
Track Severe Weather on mobile